Time;durP1;ratioP1;P1;durP2;ratioP2;P2;SDS_P1;SDS_P2;PMS_P1;PMS_P2;Temp;Humidity;BMP_temperature;BMP_pressure;BME280_temperature;BME280_humidity;BME280_pressure;Samples;Min_cycle;Max_cycle;Signal;HPM_P1;HPM_P2
2023/03/26 00:00:12;;;;;;;4.17;1.80;;;;;;;;;;5014313;28;20313;-74
2023/03/26 00:02:38;;;;;;;6.17;2.03;;;;;;;;;;5001191;28;20187;-74
2023/03/26 00:05:05;;;;;;;4.80;1.80;;;;;;;;;;5025611;28;20861;-75
2023/03/26 00:07:32;;;;;;;6.93;2.10;;;;;;;;;;5022918;28;20274;-75
2023/03/26 00:09:58;;;;;;;6.27;2.07;;;;;;;;;;5023870;28;20628;-74
2023/03/26 00:12:25;;;;;;;5.37;1.80;;;;;;;;;;5007554;28;20205;-74
2023/03/26 00:14:51;;;;;;;6.53;2.10;;;;;;;;;;5021112;28;20206;-75
2023/03/26 00:17:17;;;;;;;7.87;2.30;;;;;;;;;;5018531;28;20261;-74
2023/03/26 00:19:44;;;;;;;4.90;2.43;;;;;;;;;;5027796;28;20322;-74
2023/03/26 00:22:12;;;;;;;14.50;6.37;;;;;;;;;;5017233;28;20167;-74
2023/03/26 00:24:39;;;;;;;16.77;7.57;;;;;;;;;;5020004;28;20202;-74
2023/03/26 00:27:07;;;;;;;13.60;5.30;;;;;;;;;;5021534;28;20187;-74
2023/03/26 00:29:34;;;;;;;11.67;3.63;;;;;;;;;;5003528;28;20210;-74
2023/03/26 00:32:01;;;;;;;10.53;3.60;;;;;;;;;;4997795;28;20187;-75
2023/03/26 00:34:27;;;;;;;25.87;10.93;;;;;;;;;;5013798;28;20578;-74
2023/03/26 00:36:53;;;;;;;10.53;4.13;;;;;;;;;;5005662;28;20225;-74
2023/03/26 00:39:22;;;;;;;11.30;5.03;;;;;;;;;;5005815;28;20705;-75
2023/03/26 00:41:53;;;;;;;7.93;2.90;;;;;;;;;;5005266;28;20195;-74
2023/03/26 00:44:19;;;;;;;6.77;2.10;;;;;;;;;;5021602;28;20572;-74
2023/03/26 00:46:46;;;;;;;9.50;3.63;;;;;;;;;;5019382;28;20282;-74
2023/03/26 00:49:13;;;;;;;11.73;4.50;;;;;;;;;;5003850;28;20198;-75
2023/03/26 00:51:40;;;;;;;7.83;2.97;;;;;;;;;;5006177;28;20240;-73
2023/03/26 00:54:07;;;;;;;5.10;2.00;;;;;;;;;;5017616;28;20187;-74
2023/03/26 00:56:33;;;;;;;7.10;2.23;;;;;;;;;;5017839;28;20206;-74
2023/03/26 00:59:00;;;;;;;8.97;2.77;;;;;;;;;;4999846;28;20240;-75
2023/03/26 01:01:29;;;;;;;8.13;2.07;;;;;;;;;;5022333;28;20232;-75
2023/03/26 01:04:15;;;;;;;5.63;1.80;;;;;;;;;;5023951;28;20175;-75
2023/03/26 01:06:44;;;;;;;9.50;2.90;;;;;;;;;;5017529;28;20190;-74
2023/03/26 01:09:14;;;;;;;11.13;4.73;;;;;;;;;;5001932;28;20278;-74
2023/03/26 01:11:41;;;;;;;9.40;4.43;;;;;;;;;;5002608;28;20191;-74
2023/03/26 01:14:09;;;;;;;8.50;3.80;;;;;;;;;;5002957;28;20688;-75
2023/03/26 01:16:40;;;;;;;13.80;4.77;;;;;;;;;;5004098;28;20220;-73
2023/03/26 01:19:09;;;;;;;9.90;4.20;;;;;;;;;;5020604;28;20225;-75
2023/03/26 01:21:37;;;;;;;15.70;7.03;;;;;;;;;;5005005;28;20182;-74
2023/03/26 01:24:04;;;;;;;16.90;7.63;;;;;;;;;;5022762;28;20274;-74
2023/03/26 01:26:51;;;;;;;14.17;5.80;;;;;;;;;;5026395;28;20197;-75
2023/03/26 01:29:38;;;;;;;12.27;4.30;;;;;;;;;;5003730;28;20225;-73
2023/03/26 01:32:23;;;;;;;13.07;5.10;;;;;;;;;;5002764;28;20251;-73
2023/03/26 01:35:12;;;;;;;10.47;4.00;;;;;;;;;;5024707;28;21110;-74
2023/03/26 01:37:39;;;;;;;9.50;4.00;;;;;;;;;;5018083;28;20547;-74
2023/03/26 01:40:22;;;;;;;10.50;4.23;;;;;;;;;;5002598;28;20212;-74
2023/03/26 01:42:56;;;;;;;15.33;5.50;;;;;;;;;;5019115;28;20210;-74
2023/03/26 01:45:25;;;;;;;18.47;7.03;;;;;;;;;;5008394;28;20771;-74
2023/03/26 01:47:53;;;;;;;14.83;5.83;;;;;;;;;;5026283;28;20269;-73
2023/03/26 01:50:19;;;;;;;15.30;5.00;;;;;;;;;;5004163;28;20858;-74
2023/03/26 01:52:46;;;;;;;10.50;4.20;;;;;;;;;;5029069;28;20189;-75
2023/03/26 01:55:13;;;;;;;13.13;4.80;;;;;;;;;;5024775;28;20279;-74
2023/03/26 01:57:48;;;;;;;8.67;3.50;;;;;;;;;;5019007;28;20237;-75
2023/03/26 02:00:21;;;;;;;9.50;3.70;;;;;;;;;;5025443;28;20284;-73
2023/03/26 02:02:53;;;;;;;12.20;4.20;;;;;;;;;;5011146;28;20190;-74
2023/03/26 02:05:20;;;;;;;10.40;4.70;;;;;;;;;;5010133;28;20297;-75
2023/03/26 02:07:49;;;;;;;12.73;4.50;;;;;;;;;;5025027;28;20851;-74
2023/03/26 02:10:16;;;;;;;10.97;4.23;;;;;;;;;;5025459;28;20214;-75
2023/03/26 02:12:43;;;;;;;9.90;4.30;;;;;;;;;;5023791;28;20212;-74
2023/03/26 02:15:10;;;;;;;8.27;3.33;;;;;;;;;;5005842;28;20686;-74
2023/03/26 02:17:39;;;;;;;14.47;6.00;;;;;;;;;;5026342;28;20215;-75
2023/03/26 02:20:09;;;;;;;10.63;4.20;;;;;;;;;;5010756;28;21665;-75
2023/03/26 02:22:39;;;;;;;15.20;5.97;;;;;;;;;;5027735;28;20185;-75
2023/03/26 02:25:08;;;;;;;13.73;6.40;;;;;;;;;;5006871;28;20183;-75
2023/03/26 02:27:35;;;;;;;11.40;4.30;;;;;;;;;;4994813;28;20206;-75
2023/03/26 02:30:01;;;;;;;12.87;5.60;;;;;;;;;;5008063;28;20203;-75
2023/03/26 02:32:27;;;;;;;13.00;5.07;;;;;;;;;;5024788;28;20221;-75
2023/03/26 02:34:53;;;;;;;14.30;4.47;;;;;;;;;;5027286;28;20305;-75
2023/03/26 02:37:20;;;;;;;11.47;4.47;;;;;;;;;;5007299;28;20191;-74
2023/03/26 02:39:51;;;;;;;18.53;6.40;;;;;;;;;;5010741;28;20686;-74
2023/03/26 02:42:26;;;;;;;10.40;4.17;;;;;;;;;;5006500;28;20715;-74
2023/03/26 02:44:52;;;;;;;9.73;3.90;;;;;;;;;;5004754;28;20182;-73
2023/03/26 02:47:18;;;;;;;11.67;4.67;;;;;;;;;;5026879;28;20175;-74
2023/03/26 02:50:03;;;;;;;5.37;2.40;;;;;;;;;;5023779;28;20214;-74
2023/03/26 02:53:07;;;;;;;6.17;2.37;;;;;;;;;;4994162;28;20190;-73
2023/03/26 02:55:37;;;;;;;6.67;2.90;;;;;;;;;;5005066;28;20222;-74
2023/03/26 02:58:03;;;;;;;9.43;3.63;;;;;;;;;;5006526;28;20186;-75
2023/03/26 03:00:35;;;;;;;12.07;4.50;;;;;;;;;;5003924;28;20226;-75
2023/03/26 03:03:23;;;;;;;13.70;5.87;;;;;;;;;;5021225;28;20269;-74
2023/03/26 03:06:04;;;;;;;13.90;5.10;;;;;;;;;;5022440;28;20203;-74
2023/03/26 03:08:38;;;;;;;10.60;4.40;;;;;;;;;;5006861;28;20321;-74
2023/03/26 03:11:32;;;;;;;10.37;3.87;;;;;;;;;;5000274;28;20235;-73
2023/03/26 03:13:58;;;;;;;8.83;3.83;;;;;;;;;;5020543;28;20195;-74
2023/03/26 03:16:26;;;;;;;11.20;3.53;;;;;;;;;;5003950;28;20210;-74
2023/03/26 03:18:56;;;;;;;7.43;2.90;;;;;;;;;;5005122;28;20720;-74
2023/03/26 03:21:28;;;;;;;4.37;2.00;;;;;;;;;;5007087;28;20576;-74
2023/03/26 03:23:55;;;;;;;5.57;2.33;;;;;;;;;;5019089;28;20735;-73
2023/03/26 03:26:26;;;;;;;9.57;3.87;;;;;;;;;;5009535;28;20238;-74
2023/03/26 03:28:55;;;;;;;8.93;3.10;;;;;;;;;;5023813;28;20190;-74
2023/03/26 03:31:21;;;;;;;7.57;3.07;;;;;;;;;;5020849;28;20285;-73
2023/03/26 03:33:48;;;;;;;8.17;3.20;;;;;;;;;;5003313;28;20213;-74
2023/03/26 03:36:22;;;;;;;10.27;3.63;;;;;;;;;;5027737;28;20218;-74
2023/03/26 03:39:02;;;;;;;7.80;2.80;;;;;;;;;;5020042;28;20186;-74
2023/03/26 03:41:30;;;;;;;7.67;2.80;;;;;;;;;;5001676;28;20598;-74
2023/03/26 03:43:58;;;;;;;10.07;4.30;;;;;;;;;;5007959;28;20187;-74
2023/03/26 03:46:27;;;;;;;12.33;3.93;;;;;;;;;;5006107;28;20265;-75
2023/03/26 03:48:54;;;;;;;13.60;5.00;;;;;;;;;;5002645;28;20860;-73
2023/03/26 03:51:32;;;;;;;9.77;3.90;;;;;;;;;;5010581;28;20190;-74
2023/03/26 03:54:00;;;;;;;8.93;4.13;;;;;;;;;;5002831;28;20205;-73
2023/03/26 03:56:52;;;;;;;9.07;3.90;;;;;;;;;;5026853;28;20199;-74
2023/03/26 03:59:40;;;;;;;8.37;4.07;;;;;;;;;;5002233;28;20261;-74
2023/03/26 04:02:08;;;;;;;10.77;3.70;;;;;;;;;;5003629;28;20186;-74
2023/03/26 04:04:41;;;;;;;6.47;2.90;;;;;;;;;;5003626;28;20189;-74
2023/03/26 04:07:12;;;;;;;7.30;2.93;;;;;;;;;;5025607;28;20163;-74
2023/03/26 04:10:08;;;;;;;9.40;3.73;;;;;;;;;;5024526;28;20229;-75
2023/03/26 04:12:53;;;;;;;8.40;2.80;;;;;;;;;;5023622;28;20170;-74
2023/03/26 04:15:30;;;;;;;7.50;2.90;;;;;;;;;;4985492;28;20221;-74
2023/03/26 04:17:56;;;;;;;8.53;2.80;;;;;;;;;;5007688;28;20249;-74
2023/03/26 04:20:22;;;;;;;9.10;3.67;;;;;;;;;;5025244;28;20226;-75
2023/03/26 04:22:50;;;;;;;9.97;3.33;;;;;;;;;;4993179;28;20218;-75
2023/03/26 04:25:17;;;;;;;6.70;3.33;;;;;;;;;;5004885;28;20197;-74
2023/03/26 04:27:47;;;;;;;14.57;4.80;;;;;;;;;;5006881;28;20194;-74
2023/03/26 04:30:33;;;;;;;14.00;4.50;;;;;;;;;;5021984;28;20678;-75
2023/03/26 04:33:14;;;;;;;10.60;3.60;;;;;;;;;;5006959;28;20258;-75
2023/03/26 04:35:44;;;;;;;11.67;3.20;;;;;;;;;;5003980;28;20266;-74
2023/03/26 04:38:15;;;;;;;9.17;3.87;;;;;;;;;;4987970;28;20190;-74
2023/03/26 04:40:47;;;;;;;7.43;2.83;;;;;;;;;;5015972;28;20629;-74
2023/03/26 04:43:41;;;;;;;7.40;2.70;;;;;;;;;;5020042;28;20174;-74
2023/03/26 04:46:20;;;;;;;8.37;2.10;;;;;;;;;;4982321;28;20600;-74
2023/03/26 04:48:51;;;;;;;9.70;3.63;;;;;;;;;;5005878;28;20205;-74
2023/03/26 04:51:18;;;;;;;14.90;4.93;;;;;;;;;;5009225;28;20201;-74
2023/03/26 04:53:52;;;;;;;6.93;3.07;;;;;;;;;;5004022;28;20190;-74
2023/03/26 04:56:34;;;;;;;8.37;3.10;;;;;;;;;;5000845;28;20292;-74
2023/03/26 04:59:24;;;;;;;9.13;3.60;;;;;;;;;;5021235;28;20524;-75
2023/03/26 05:01:52;;;;;;;9.90;3.50;;;;;;;;;;5000074;28;21967;-75
2023/03/26 05:04:19;;;;;;;9.30;2.67;;;;;;;;;;4995322;28;20621;-73
2023/03/26 05:06:46;;;;;;;13.57;4.03;;;;;;;;;;5001521;28;20191;-74
2023/03/26 05:09:27;;;;;;;7.40;2.57;;;;;;;;;;5002997;28;20449;-74
2023/03/26 05:12:10;;;;;;;8.77;2.63;;;;;;;;;;5003161;28;20746;-74
2023/03/26 05:14:49;;;;;;;8.43;2.20;;;;;;;;;;5000386;28;20210;-74
2023/03/26 05:17:22;;;;;;;6.47;2.27;;;;;;;;;;5001926;28;20183;-73
2023/03/26 05:19:48;;;;;;;6.00;2.20;;;;;;;;;;5006730;28;20763;-74
2023/03/26 05:22:15;;;;;;;6.97;2.10;;;;;;;;;;4987232;28;20783;-76
2023/03/26 05:25:02;;;;;;;5.23;1.90;;;;;;;;;;5019102;28;20638;-74
2023/03/26 05:27:29;;;;;;;6.27;2.13;;;;;;;;;;5003458;28;20194;-75
2023/03/26 05:29:59;;;;;;;7.17;2.20;;;;;;;;;;5000133;28;20870;-74
2023/03/26 05:32:26;;;;;;;4.13;1.70;;;;;;;;;;5002157;28;20190;-74
2023/03/26 05:34:52;;;;;;;6.53;1.90;;;;;;;;;;5020845;28;20182;-74
2023/03/26 05:37:23;;;;;;;5.73;2.10;;;;;;;;;;5000665;28;20182;-75
2023/03/26 05:40:11;;;;;;;6.33;1.97;;;;;;;;;;4998049;28;20209;-74
2023/03/26 05:42:56;;;;;;;8.17;2.40;;;;;;;;;;5018233;28;20879;-74
2023/03/26 05:45:42;;;;;;;7.17;2.20;;;;;;;;;;5007598;28;20206;-74
2023/03/26 05:48:24;;;;;;;5.57;2.13;;;;;;;;;;5018319;28;20189;-74
2023/03/26 05:50:51;;;;;;;5.83;2.23;;;;;;;;;;5018423;28;20233;-74
2023/03/26 05:53:18;;;;;;;4.53;2.07;;;;;;;;;;5014947;28;20294;-74
2023/03/26 05:56:16;;;;;;;11.80;2.13;;;;;;;;;;4982534;28;20218;-74
2023/03/26 05:59:01;;;;;;;7.63;2.20;;;;;;;;;;5022397;28;20174;-73
2023/03/26 06:01:28;;;;;;;5.73;2.20;;;;;;;;;;5025752;28;20184;-75
2023/03/26 06:04:20;;;;;;;5.87;2.30;;;;;;;;;;5004419;28;20578;-73
2023/03/26 06:07:00;;;;;;;6.37;2.17;;;;;;;;;;4999892;28;20182;-74
2023/03/26 06:09:28;;;;;;;5.43;1.93;;;;;;;;;;5000532;28;20272;-74
2023/03/26 06:11:54;;;;;;;6.57;2.00;;;;;;;;;;5002057;28;20191;-73
2023/03/26 06:14:21;;;;;;;5.77;2.00;;;;;;;;;;5006915;28;20175;-74
2023/03/26 06:17:04;;;;;;;6.47;2.20;;;;;;;;;;5001336;28;20298;-75
2023/03/26 06:19:49;;;;;;;6.10;2.20;;;;;;;;;;5001816;28;20261;-73
2023/03/26 06:22:23;;;;;;;5.57;1.73;;;;;;;;;;5004438;28;20174;-73
2023/03/26 06:25:08;;;;;;;6.37;2.10;;;;;;;;;;5002669;28;20309;-75
2023/03/26 06:27:50;;;;;;;5.83;2.20;;;;;;;;;;4984815;28;20636;-82
2023/03/26 06:30:39;;;;;;;6.97;1.80;;;;;;;;;;5020911;28;20218;-74
2023/03/26 06:33:24;;;;;;;5.43;1.97;;;;;;;;;;5026474;28;20182;-77
2023/03/26 06:35:51;;;;;;;6.77;1.97;;;;;;;;;;5009916;28;20289;-77
2023/03/26 06:38:17;;;;;;;5.90;2.13;;;;;;;;;;5008983;28;20230;-76
2023/03/26 06:40:43;;;;;;;4.10;1.77;;;;;;;;;;5026452;28;20217;-78
2023/03/26 06:43:39;;;;;;;6.03;2.00;;;;;;;;;;4945367;28;20232;-78
2023/03/26 06:46:34;;;;;;;6.77;2.17;;;;;;;;;;5002401;28;20197;-76
2023/03/26 06:49:19;;;;;;;4.77;1.90;;;;;;;;;;5028020;28;20202;-78
2023/03/26 06:52:04;;;;;;;5.87;2.13;;;;;;;;;;5029039;28;20225;-76
2023/03/26 06:54:51;;;;;;;5.00;1.77;;;;;;;;;;5003658;28;20973;-79
2023/03/26 06:57:36;;;;;;;6.20;2.27;;;;;;;;;;5027725;28;20182;-78
2023/03/26 07:00:23;;;;;;;6.47;2.10;;;;;;;;;;4998152;28;20229;-78
2023/03/26 07:03:10;;;;;;;5.87;2.20;;;;;;;;;;5024515;28;20198;-77
2023/03/26 07:05:55;;;;;;;5.87;2.07;;;;;;;;;;5028861;28;20183;-78
2023/03/26 07:08:44;;;;;;;6.53;2.00;;;;;;;;;;5032670;28;20189;-78
2023/03/26 07:11:36;;;;;;;4.80;1.80;;;;;;;;;;5005493;28;21609;-78
2023/03/26 07:14:37;;;;;;;5.90;1.97;;;;;;;;;;5022033;28;20532;-78
2023/03/26 07:17:10;;;;;;;5.93;2.20;;;;;;;;;;5025717;28;20186;-78
2023/03/26 07:19:52;;;;;;;6.23;1.90;;;;;;;;;;5027547;28;20209;-76
2023/03/26 07:22:23;;;;;;;6.27;2.00;;;;;;;;;;5025074;28;20183;-77
2023/03/26 07:25:09;;;;;;;5.27;2.00;;;;;;;;;;5029706;28;20879;-79
2023/03/26 07:27:46;;;;;;;8.27;2.13;;;;;;;;;;5014704;28;20337;-78
2023/03/26 07:30:20;;;;;;;6.97;2.60;;;;;;;;;;5010435;28;20221;-76
2023/03/26 07:33:29;;;;;;;86.80;32.60;;;;;;;;;;4984288;28;20286;-77
2023/03/26 07:36:28;;;;;;;8.20;2.80;;;;;;;;;;4994255;28;20547;-78
2023/03/26 07:39:34;;;;;;;6.40;2.23;;;;;;;;;;5015698;28;20193;-77
2023/03/26 07:42:33;;;;;;;4.47;2.00;;;;;;;;;;5006998;28;20216;-77
2023/03/26 07:45:18;;;;;;;6.63;2.30;;;;;;;;;;5009232;28;20748;-78
2023/03/26 07:47:59;;;;;;;6.10;2.20;;;;;;;;;;5008713;28;20213;-78
2023/03/26 07:50:39;;;;;;;7.77;2.50;;;;;;;;;;5017889;28;20862;-77
2023/03/26 07:53:23;;;;;;;6.40;2.63;;;;;;;;;;5006257;28;20186;-78
2023/03/26 07:56:10;;;;;;;6.70;2.77;;;;;;;;;;5018822;28;20218;-78
2023/03/26 07:59:29;;;;;;;6.67;2.33;;;;;;;;;;5001393;28;20209;-77
2023/03/26 08:02:20;;;;;;;4.43;2.03;;;;;;;;;;5032162;28;20174;-76
2023/03/26 08:04:57;;;;;;;8.07;2.20;;;;;;;;;;5029381;28;20170;-76
2023/03/26 08:07:43;;;;;;;5.87;2.03;;;;;;;;;;5049372;28;20319;-77
2023/03/26 08:10:20;;;;;;;5.53;2.50;;;;;;;;;;5023537;28;20789;-78
2023/03/26 08:12:59;;;;;;;4.07;1.90;;;;;;;;;;5039392;28;20281;-76
2023/03/26 08:15:32;;;;;;;7.30;2.50;;;;;;;;;;5031317;28;20252;-78
2023/03/26 08:17:58;;;;;;;9.27;2.50;;;;;;;;;;5021322;28;20191;-78
2023/03/26 08:20:25;;;;;;;6.43;2.10;;;;;;;;;;5023662;28;20202;-78
2023/03/26 08:23:01;;;;;;;7.90;2.70;;;;;;;;;;5025084;28;20266;-78
2023/03/26 08:25:48;;;;;;;7.20;2.30;;;;;;;;;;5021507;28;20186;-78
2023/03/26 08:28:20;;;;;;;9.70;2.50;;;;;;;;;;5018408;28;20194;-78
2023/03/26 08:30:47;;;;;;;6.53;2.50;;;;;;;;;;5026954;28;20210;-77
2023/03/26 08:33:15;;;;;;;7.83;2.37;;;;;;;;;;5028382;28;20273;-78
2023/03/26 08:35:42;;;;;;;7.60;3.00;;;;;;;;;;5025743;28;20202;-77
2023/03/26 08:38:09;;;;;;;5.73;2.33;;;;;;;;;;5023348;28;20488;-79
2023/03/26 08:40:38;;;;;;;7.07;2.03;;;;;;;;;;5022004;28;20240;-78
2023/03/26 08:43:08;;;;;;;6.63;2.43;;;;;;;;;;5006750;28;20205;-77
2023/03/26 08:45:52;;;;;;;4.17;2.00;;;;;;;;;;4990044;28;20178;-78
2023/03/26 08:48:33;;;;;;;5.67;2.00;;;;;;;;;;5025185;28;20187;-78
2023/03/26 08:51:09;;;;;;;7.97;1.83;;;;;;;;;;5010748;28;20256;-78
2023/03/26 08:53:47;;;;;;;4.17;2.10;;;;;;;;;;5024725;28;20185;-78
2023/03/26 08:56:20;;;;;;;6.47;2.40;;;;;;;;;;5008732;28;20217;-80
2023/03/26 08:59:08;;;;;;;7.13;2.30;;;;;;;;;;4977371;28;20244;-79
2023/03/26 09:01:51;;;;;;;7.07;3.93;;;;;;;;;;5022443;28;20175;-73
2023/03/26 09:04:35;;;;;;;9.80;3.97;;;;;;;;;;5020283;28;20171;-72
2023/03/26 09:07:05;;;;;;;12.90;8.47;;;;;;;;;;5025331;28;20272;-74
2023/03/26 09:09:32;;;;;;;8.83;3.80;;;;;;;;;;5009078;28;20206;-74
2023/03/26 09:11:58;;;;;;;7.37;2.83;;;;;;;;;;5020938;28;20178;-73
2023/03/26 09:14:33;;;;;;;6.57;2.60;;;;;;;;;;5023629;28;20185;-71
2023/03/26 09:17:14;;;;;;;7.67;2.60;;;;;;;;;;5024625;28;20585;-74
2023/03/26 09:20:10;;;;;;;10.13;6.37;;;;;;;;;;5023157;28;20230;-74
2023/03/26 09:23:02;;;;;;;7.57;4.87;;;;;;;;;;5007499;28;20190;-73
2023/03/26 09:25:40;;;;;;;14.47;10.40;;;;;;;;;;4984300;28;20261;-73
2023/03/26 09:28:25;;;;;;;12.87;10.97;;;;;;;;;;5024087;28;20265;-75
2023/03/26 09:30:56;;;;;;;9.03;4.77;;;;;;;;;;5021325;28;20206;-79
2023/03/26 09:33:41;;;;;;;9.27;5.50;;;;;;;;;;5025168;28;20702;-79
2023/03/26 09:36:07;;;;;;;6.10;3.77;;;;;;;;;;5024420;28;20207;-79
2023/03/26 09:38:52;;;;;;;8.37;5.80;;;;;;;;;;5031106;28;20175;-80
2023/03/26 09:41:45;;;;;;;19.93;15.67;;;;;;;;;;5008317;28;20210;-78
2023/03/26 09:44:24;;;;;;;6.73;4.80;;;;;;;;;;5030876;28;20273;-79
2023/03/26 09:47:01;;;;;;;5.07;3.00;;;;;;;;;;5029235;28;20186;-79
2023/03/26 09:49:42;;;;;;;4.17;2.70;;;;;;;;;;5008031;28;20827;-79
2023/03/26 09:52:09;;;;;;;4.03;2.90;;;;;;;;;;5022758;28;20722;-76
2023/03/26 09:54:52;;;;;;;9.77;7.97;;;;;;;;;;5010969;28;20225;-79
2023/03/26 09:57:20;;;;;;;3.47;2.40;;;;;;;;;;4991199;28;20202;-78
2023/03/26 10:00:06;;;;;;;4.83;2.30;;;;;;;;;;5027932;28;20594;-79
2023/03/26 10:02:53;;;;;;;3.97;1.73;;;;;;;;;;5018491;28;20193;-79
2023/03/26 10:05:40;;;;;;;7.17;4.57;;;;;;;;;;5015417;28;20194;-80
2023/03/26 10:08:29;;;;;;;3.57;1.73;;;;;;;;;;5018305;28;20209;-79
2023/03/26 10:11:01;;;;;;;5.30;1.80;;;;;;;;;;5031823;28;20222;-79
2023/03/26 10:13:36;;;;;;;4.60;1.97;;;;;;;;;;5010877;28;20250;-77
2023/03/26 10:16:06;;;;;;;6.13;3.87;;;;;;;;;;5025812;28;20229;-80
2023/03/26 10:18:41;;;;;;;4.50;2.30;;;;;;;;;;5032651;28;20179;-79
2023/03/26 10:21:14;;;;;;;3.73;1.50;;;;;;;;;;5034999;28;20201;-79
2023/03/26 10:23:44;;;;;;;5.83;1.90;;;;;;;;;;5009875;28;20174;-79
2023/03/26 10:26:10;;;;;;;4.10;1.70;;;;;;;;;;5035439;28;20257;-79
2023/03/26 10:28:46;;;;;;;10.57;5.17;;;;;;;;;;5037198;28;20202;-79
2023/03/26 10:31:45;;;;;;;4.70;1.87;;;;;;;;;;5033699;28;20268;-79
2023/03/26 10:34:31;;;;;;;9.33;4.30;;;;;;;;;;4980705;28;20203;-78
2023/03/26 10:37:00;;;;;;;5.43;2.20;;;;;;;;;;5013963;28;20201;-80
2023/03/26 10:39:48;;;;;;;7.07;2.70;;;;;;;;;;5024718;28;20229;-79
2023/03/26 10:42:23;;;;;;;4.73;2.10;;;;;;;;;;5010659;28;20336;-78
2023/03/26 10:45:08;;;;;;;3.70;1.60;;;;;;;;;;5024863;28;20627;-77
2023/03/26 10:47:38;;;;;;;10.90;3.70;;;;;;;;;;4988166;28;20604;-79
2023/03/26 10:50:06;;;;;;;7.37;2.07;;;;;;;;;;5029726;28;20227;-79
2023/03/26 10:52:46;;;;;;;5.43;2.10;;;;;;;;;;5029794;28;20186;-79
2023/03/26 10:55:21;;;;;;;4.57;1.80;;;;;;;;;;5025581;28;20376;-79
2023/03/26 10:57:55;;;;;;;5.60;2.00;;;;;;;;;;5023459;28;20186;-79
2023/03/26 11:00:27;;;;;;;5.73;2.00;;;;;;;;;;5031585;28;20594;-79
2023/03/26 11:02:56;;;;;;;6.67;2.10;;;;;;;;;;5023877;28;20294;-77
2023/03/26 11:05:34;;;;;;;3.30;1.90;;;;;;;;;;5031066;28;20229;-79
2023/03/26 11:08:20;;;;;;;3.00;1.67;;;;;;;;;;5009813;28;20222;-79
2023/03/26 11:10:58;;;;;;;8.30;2.80;;;;;;;;;;5029305;28;20236;-79
2023/03/26 11:13:43;;;;;;;7.73;2.60;;;;;;;;;;4996671;28;20564;-79
2023/03/26 11:16:18;;;;;;;6.23;2.20;;;;;;;;;;5031791;28;20214;-78
2023/03/26 11:18:50;;;;;;;3.90;2.13;;;;;;;;;;5000488;28;20194;-79
2023/03/26 11:21:19;;;;;;;4.20;2.20;;;;;;;;;;5022705;28;20550;-79
2023/03/26 11:24:05;;;;;;;5.93;2.50;;;;;;;;;;5028236;28;20183;-78
2023/03/26 11:26:37;;;;;;;3.77;2.20;;;;;;;;;;5028022;28;20179;-79
2023/03/26 11:29:22;;;;;;;7.53;2.83;;;;;;;;;;4987253;28;20178;-79
2023/03/26 11:31:53;;;;;;;7.43;2.73;;;;;;;;;;5029291;28;20186;-79
2023/03/26 11:34:22;;;;;;;6.10;2.90;;;;;;;;;;5032154;28;20668;-80
2023/03/26 11:36:54;;;;;;;5.20;2.60;;;;;;;;;;5008662;28;20213;-79
2023/03/26 11:39:22;;;;;;;5.67;2.50;;;;;;;;;;5026059;28;20174;-78
2023/03/26 11:41:50;;;;;;;4.47;2.40;;;;;;;;;;5024246;28;20178;-79
2023/03/26 11:44:36;;;;;;;6.60;2.47;;;;;;;;;;5003394;28;20270;-79
2023/03/26 11:47:08;;;;;;;4.27;1.90;;;;;;;;;;5020112;28;20697;-79
2023/03/26 11:49:36;;;;;;;3.83;1.90;;;;;;;;;;5024859;28;20229;-79
2023/03/26 11:52:02;;;;;;;4.73;1.90;;;;;;;;;;5026463;28;20637;-81
2023/03/26 11:54:28;;;;;;;4.27;1.90;;;;;;;;;;5031109;28;20182;-80
2023/03/26 11:57:01;;;;;;;4.30;1.83;;;;;;;;;;4991710;28;20217;-80
2023/03/26 11:59:34;;;;;;;3.37;1.57;;;;;;;;;;5007015;28;20642;-78
2023/03/26 12:02:00;;;;;;;2.83;1.50;;;;;;;;;;5015535;28;20274;-80
2023/03/26 12:04:28;;;;;;;3.23;1.50;;;;;;;;;;5021595;28;20187;-78
2023/03/26 12:06:59;;;;;;;6.00;1.77;;;;;;;;;;5027877;28;20726;-78
2023/03/26 12:09:25;;;;;;;2.77;1.10;;;;;;;;;;4990942;28;20466;-78
2023/03/26 12:11:54;;;;;;;3.53;1.10;;;;;;;;;;5003078;28;20648;-79
2023/03/26 12:14:22;;;;;;;2.47;1.00;;;;;;;;;;5019841;28;20631;-75
2023/03/26 12:16:57;;;;;;;4.90;1.23;;;;;;;;;;5018835;28;20690;-76
2023/03/26 12:19:24;;;;;;;2.57;1.10;;;;;;;;;;5020220;28;20237;-77
2023/03/26 12:21:51;;;;;;;1.63;1.00;;;;;;;;;;5016152;28;20633;-73
2023/03/26 12:24:28;;;;;;;2.40;1.03;;;;;;;;;;5017568;28;20179;-76
2023/03/26 12:27:00;;;;;;;2.93;0.97;;;;;;;;;;5019438;28;20197;-75
2023/03/26 12:29:27;;;;;;;2.60;1.00;;;;;;;;;;5021621;28;20214;-77
2023/03/26 12:31:55;;;;;;;1.93;0.90;;;;;;;;;;5019208;28;20186;-78
2023/03/26 12:34:22;;;;;;;1.77;1.10;;;;;;;;;;5004719;28;20194;-76
2023/03/26 12:37:01;;;;;;;2.93;1.20;;;;;;;;;;5017801;28;20214;-75
2023/03/26 12:39:31;;;;;;;2.37;1.10;;;;;;;;;;5024284;28;20210;-76
2023/03/26 12:41:59;;;;;;;1.67;0.80;;;;;;;;;;5024437;28;20170;-75
2023/03/26 12:44:27;;;;;;;3.00;1.00;;;;;;;;;;5023218;28;20658;-75
2023/03/26 12:47:07;;;;;;;1.83;0.97;;;;;;;;;;5024758;28;20183;-74
2023/03/26 12:49:35;;;;;;;1.53;0.90;;;;;;;;;;5021293;28;20220;-74
2023/03/26 12:52:09;;;;;;;3.03;1.10;;;;;;;;;;4986894;28;20237;-74
2023/03/26 12:54:56;;;;;;;2.37;0.97;;;;;;;;;;5025121;28;20183;-73
2023/03/26 12:57:25;;;;;;;2.30;1.03;;;;;;;;;;5002309;28;20831;-73
2023/03/26 12:59:57;;;;;;;2.60;1.00;;;;;;;;;;5009015;28;20217;-73
2023/03/26 13:02:31;;;;;;;3.13;1.10;;;;;;;;;;5012100;28;20604;-74
2023/03/26 13:05:00;;;;;;;3.10;1.03;;;;;;;;;;5007996;28;20367;-73
2023/03/26 13:07:46;;;;;;;2.03;0.80;;;;;;;;;;5022824;28;20180;-73
2023/03/26 13:10:31;;;;;;;1.73;1.00;;;;;;;;;;5016592;28;20328;-74
2023/03/26 13:13:08;;;;;;;2.27;1.00;;;;;;;;;;5025096;28;20177;-76
2023/03/26 13:15:40;;;;;;;2.10;1.07;;;;;;;;;;5002962;28;20206;-76
2023/03/26 13:18:12;;;;;;;2.60;1.00;;;;;;;;;;5018179;28;20181;-75
2023/03/26 13:20:50;;;;;;;1.87;1.00;;;;;;;;;;4998829;28;20297;-76
2023/03/26 13:23:26;;;;;;;3.47;1.20;;;;;;;;;;4999526;28;20174;-75
2023/03/26 13:26:05;;;;;;;2.93;1.10;;;;;;;;;;5020268;28;20190;-74
2023/03/26 13:28:55;;;;;;;2.30;1.00;;;;;;;;;;5004710;28;20187;-76
2023/03/26 13:31:32;;;;;;;2.87;1.00;;;;;;;;;;5018170;28;20242;-76
2023/03/26 13:34:06;;;;;;;2.00;1.00;;;;;;;;;;5017439;28;20194;-73
2023/03/26 13:36:37;;;;;;;2.53;1.00;;;;;;;;;;5007394;28;20205;-79
2023/03/26 13:39:36;;;;;;;2.77;1.20;;;;;;;;;;5015580;28;20224;-75
2023/03/26 13:42:02;;;;;;;2.40;1.00;;;;;;;;;;4944371;28;20199;-77
2023/03/26 13:44:28;;;;;;;2.00;0.97;;;;;;;;;;5000906;28;20183;-77
2023/03/26 13:46:58;;;;;;;2.50;0.93;;;;;;;;;;5018421;28;20281;-75
2023/03/26 13:49:35;;;;;;;1.20;0.70;;;;;;;;;;5002055;28;20247;-77
2023/03/26 13:52:08;;;;;;;1.97;0.97;;;;;;;;;;4999680;28;20241;-78
2023/03/26 13:54:38;;;;;;;1.83;0.87;;;;;;;;;;5018188;28;20190;-73
2023/03/26 13:57:20;;;;;;;3.10;1.00;;;;;;;;;;5023524;28;20244;-76
2023/03/26 13:59:53;;;;;;;2.70;0.93;;;;;;;;;;5019069;28;20203;-77
2023/03/26 14:02:27;;;;;;;2.60;0.90;;;;;;;;;;5021324;28;20705;-77
2023/03/26 14:05:00;;;;;;;1.70;0.80;;;;;;;;;;5024073;28;20471;-77
2023/03/26 14:07:31;;;;;;;4.70;0.97;;;;;;;;;;5025887;28;20190;-78
2023/03/26 14:10:07;;;;;;;1.63;0.80;;;;;;;;;;5021736;28;20256;-77
2023/03/26 14:13:06;;;;;;;3.77;1.80;;;;;;;;;;5011855;28;20182;-77
2023/03/26 14:15:46;;;;;;;2.73;1.53;;;;;;;;;;4982001;28;20372;-76
2023/03/26 14:18:35;;;;;;;3.50;1.30;;;;;;;;;;5004281;28;20237;-77
2023/03/26 14:21:13;;;;;;;2.13;1.00;;;;;;;;;;5019410;28;20207;-75
2023/03/26 14:23:52;;;;;;;2.57;1.27;;;;;;;;;;5010338;28;20630;-77
2023/03/26 14:26:25;;;;;;;3.17;1.80;;;;;;;;;;5014632;28;20191;-73
2023/03/26 14:29:04;;;;;;;3.97;1.60;;;;;;;;;;5022086;28;20253;-74
2023/03/26 14:31:46;;;;;;;2.00;1.30;;;;;;;;;;5017109;28;20500;-73
2023/03/26 14:34:15;;;;;;;3.80;1.30;;;;;;;;;;5019293;28;20785;-74
2023/03/26 14:36:43;;;;;;;3.67;1.33;;;;;;;;;;5022298;28;20429;-73
2023/03/26 14:39:22;;;;;;;2.67;1.10;;;;;;;;;;5023342;28;20189;-73
2023/03/26 14:41:50;;;;;;;3.07;1.30;;;;;;;;;;5023619;28;20175;-74
2023/03/26 14:44:34;;;;;;;3.67;1.70;;;;;;;;;;5002242;28;20202;-73
2023/03/26 14:47:14;;;;;;;3.80;1.13;;;;;;;;;;5021150;28;20187;-73
2023/03/26 14:50:02;;;;;;;3.23;1.70;;;;;;;;;;5023069;28;20228;-74
2023/03/26 14:52:35;;;;;;;3.73;2.00;;;;;;;;;;5025343;28;20190;-73
2023/03/26 14:55:03;;;;;;;5.53;2.17;;;;;;;;;;5024252;28;20278;-72
2023/03/26 14:57:45;;;;;;;4.83;1.90;;;;;;;;;;5025309;28;20269;-74
2023/03/26 15:00:15;;;;;;;3.33;1.70;;;;;;;;;;5005661;28;20213;-70
2023/03/26 15:03:01;;;;;;;4.57;1.57;;;;;;;;;;5021195;28;20190;-74
2023/03/26 15:05:38;;;;;;;3.10;1.20;;;;;;;;;;5019911;28;20717;-72
2023/03/26 15:08:05;;;;;;;2.67;1.27;;;;;;;;;;5022796;28;20230;-73
2023/03/26 15:10:48;;;;;;;4.47;1.60;;;;;;;;;;5026503;28;20210;-74
2023/03/26 15:13:20;;;;;;;5.40;1.50;;;;;;;;;;5020328;28;20281;-71
2023/03/26 15:16:01;;;;;;;2.00;1.20;;;;;;;;;;5023231;28;20202;-73
2023/03/26 15:18:46;;;;;;;5.63;2.73;;;;;;;;;;5021948;28;20269;-72
2023/03/26 15:21:12;;;;;;;3.80;2.00;;;;;;;;;;5022066;28;20492;-73
2023/03/26 15:23:46;;;;;;;7.63;2.97;;;;;;;;;;5024151;28;20221;-74
2023/03/26 15:26:30;;;;;;;4.00;1.70;;;;;;;;;;5025657;28;20911;-73
2023/03/26 15:29:12;;;;;;;3.13;1.37;;;;;;;;;;5005070;28;20198;-71